sensor_id;sensor_type;location;lat;lon;timestamp;P1;durP1;ratioP1;P2;durP2;ratioP2
64950;SDS011;51482;47.014;7.652;2022-12-13T00:00:12;19.93;;;11.07;;
64950;SDS011;51482;47.014;7.652;2022-12-13T00:02:42;18.67;;;11.13;;
64950;SDS011;51482;47.014;7.652;2022-12-13T00:05:08;17.27;;;10.80;;
64950;SDS011;51482;47.014;7.652;2022-12-13T00:07:34;19.27;;;11.00;;
64950;SDS011;51482;47.014;7.652;2022-12-13T00:10:00;19.10;;;10.63;;
64950;SDS011;51482;47.014;7.652;2022-12-13T00:12:26;18.80;;;10.93;;
64950;SDS011;51482;47.014;7.652;2022-12-13T00:14:52;17.47;;;10.63;;
64950;SDS011;51482;47.014;7.652;2022-12-13T00:17:17;17.33;;;10.73;;
64950;SDS011;51482;47.014;7.652;2022-12-13T00:19:43;17.03;;;10.47;;
64950;SDS011;51482;47.014;7.652;2022-12-13T00:22:10;16.23;;;10.73;;
64950;SDS011;51482;47.014;7.652;2022-12-13T00:24:37;16.80;;;10.10;;
64950;SDS011;51482;47.014;7.652;2022-12-13T00:27:02;18.40;;;11.00;;
64950;SDS011;51482;47.014;7.652;2022-12-13T00:29:28;16.03;;;9.80;;
64950;SDS011;51482;47.014;7.652;2022-12-13T00:31:53;15.57;;;9.23;;
64950;SDS011;51482;47.014;7.652;2022-12-13T00:34:19;16.57;;;10.60;;
64950;SDS011;51482;47.014;7.652;2022-12-13T00:36:45;17.27;;;10.53;;
64950;SDS011;51482;47.014;7.652;2022-12-13T00:39:10;17.20;;;10.23;;
64950;SDS011;51482;47.014;7.652;2022-12-13T00:41:38;16.37;;;10.20;;
64950;SDS011;51482;47.014;7.652;2022-12-13T00:44:04;15.00;;;9.27;;
64950;SDS011;51482;47.014;7.652;2022-12-13T00:46:30;16.57;;;10.53;;
64950;SDS011;51482;47.014;7.652;2022-12-13T00:48:57;20.53;;;10.63;;
64950;SDS011;51482;47.014;7.652;2022-12-13T00:51:25;17.83;;;10.60;;
64950;SDS011;51482;47.014;7.652;2022-12-13T00:53:52;16.27;;;10.83;;
64950;SDS011;51482;47.014;7.652;2022-12-13T00:56:19;16.13;;;10.60;;
64950;SDS011;51482;47.014;7.652;2022-12-13T00:58:47;16.83;;;10.53;;
64950;SDS011;51482;47.014;7.652;2022-12-13T01:01:14;16.83;;;11.30;;
64950;SDS011;51482;47.014;7.652;2022-12-13T01:03:41;15.43;;;9.97;;
64950;SDS011;51482;47.014;7.652;2022-12-13T01:06:08;16.23;;;10.90;;
64950;SDS011;51482;47.014;7.652;2022-12-13T01:08:42;16.70;;;10.10;;
64950;SDS011;51482;47.014;7.652;2022-12-13T01:11:09;16.93;;;10.00;;
64950;SDS011;51482;47.014;7.652;2022-12-13T01:13:36;19.23;;;10.70;;
64950;SDS011;51482;47.014;7.652;2022-12-13T01:16:03;16.57;;;9.60;;
64950;SDS011;51482;47.014;7.652;2022-12-13T01:18:30;15.90;;;10.53;;
64950;SDS011;51482;47.014;7.652;2022-12-13T01:20:57;16.33;;;10.40;;
64950;SDS011;51482;47.014;7.652;2022-12-13T01:23:23;15.50;;;9.57;;
64950;SDS011;51482;47.014;7.652;2022-12-13T01:25:49;18.73;;;10.30;;
64950;SDS011;51482;47.014;7.652;2022-12-13T01:28:15;17.20;;;10.00;;
64950;SDS011;51482;47.014;7.652;2022-12-13T01:30:40;18.87;;;10.17;;
64950;SDS011;51482;47.014;7.652;2022-12-13T01:33:06;16.47;;;10.50;;
64950;SDS011;51482;47.014;7.652;2022-12-13T01:35:34;13.60;;;9.37;;
64950;SDS011;51482;47.014;7.652;2022-12-13T01:38:00;16.07;;;10.07;;
64950;SDS011;51482;47.014;7.652;2022-12-13T01:40:26;14.80;;;8.97;;
64950;SDS011;51482;47.014;7.652;2022-12-13T01:42:51;19.57;;;10.53;;
64950;SDS011;51482;47.014;7.652;2022-12-13T01:45:21;16.37;;;9.67;;
64950;SDS011;51482;47.014;7.652;2022-12-13T01:47:53;14.20;;;9.60;;
64950;SDS011;51482;47.014;7.652;2022-12-13T01:50:25;17.10;;;9.43;;
64950;SDS011;51482;47.014;7.652;2022-12-13T01:52:56;14.27;;;9.23;;
64950;SDS011;51482;47.014;7.652;2022-12-13T01:55:23;16.10;;;10.17;;
64950;SDS011;51482;47.014;7.652;2022-12-13T01:57:51;15.50;;;9.50;;
64950;SDS011;51482;47.014;7.652;2022-12-13T02:00:19;13.13;;;8.70;;
64950;SDS011;51482;47.014;7.652;2022-12-13T02:02:45;16.57;;;9.23;;
64950;SDS011;51482;47.014;7.652;2022-12-13T02:05:14;16.07;;;9.40;;
64950;SDS011;51482;47.014;7.652;2022-12-13T02:07:42;12.90;;;9.30;;
64950;SDS011;51482;47.014;7.652;2022-12-13T02:10:09;18.40;;;11.10;;
64950;SDS011;51482;47.014;7.652;2022-12-13T02:12:35;18.03;;;10.27;;
64950;SDS011;51482;47.014;7.652;2022-12-13T02:15:03;15.27;;;10.20;;
64950;SDS011;51482;47.014;7.652;2022-12-13T02:20:40;15.57;;;10.07;;
64950;SDS011;51482;47.014;7.652;2022-12-13T02:26:00;14.33;;;9.30;;
64950;SDS011;51482;47.014;7.652;2022-12-13T02:36:37;18.83;;;9.93;;
64950;SDS011;51482;47.014;7.652;2022-12-13T02:39:21;17.13;;;9.73;;
64950;SDS011;51482;47.014;7.652;2022-12-13T02:41:53;15.30;;;9.77;;
64950;SDS011;51482;47.014;7.652;2022-12-13T02:44:36;15.83;;;9.93;;
64950;SDS011;51482;47.014;7.652;2022-12-13T02:47:13;16.33;;;10.67;;
64950;SDS011;51482;47.014;7.652;2022-12-13T02:49:45;17.27;;;9.70;;
64950;SDS011;51482;47.014;7.652;2022-12-13T02:52:14;17.17;;;10.03;;
64950;SDS011;51482;47.014;7.652;2022-12-13T02:54:43;16.50;;;9.87;;
64950;SDS011;51482;47.014;7.652;2022-12-13T02:57:25;14.97;;;9.90;;
64950;SDS011;51482;47.014;7.652;2022-12-13T02:59:53;18.87;;;10.00;;
64950;SDS011;51482;47.014;7.652;2022-12-13T03:03:06;15.87;;;9.80;;
64950;SDS011;51482;47.014;7.652;2022-12-13T03:08:19;17.23;;;9.63;;
64950;SDS011;51482;47.014;7.652;2022-12-13T03:13:40;17.63;;;10.80;;
64950;SDS011;51482;47.014;7.652;2022-12-13T03:18:45;18.23;;;11.03;;
64950;SDS011;51482;47.014;7.652;2022-12-13T03:21:12;17.67;;;10.43;;
64950;SDS011;51482;47.014;7.652;2022-12-13T03:23:38;17.87;;;10.80;;
64950;SDS011;51482;47.014;7.652;2022-12-13T03:26:09;18.70;;;11.23;;
64950;SDS011;51482;47.014;7.652;2022-12-13T03:28:37;21.57;;;10.57;;
64950;SDS011;51482;47.014;7.652;2022-12-13T03:31:03;21.30;;;11.70;;
64950;SDS011;51482;47.014;7.652;2022-12-13T03:33:29;17.87;;;10.57;;
64950;SDS011;51482;47.014;7.652;2022-12-13T03:35:55;18.03;;;9.83;;
64950;SDS011;51482;47.014;7.652;2022-12-13T03:38:22;18.00;;;10.70;;
64950;SDS011;51482;47.014;7.652;2022-12-13T03:40:48;18.00;;;10.90;;
64950;SDS011;51482;47.014;7.652;2022-12-13T03:43:29;20.17;;;10.77;;
64950;SDS011;51482;47.014;7.652;2022-12-13T03:45:54;19.17;;;11.00;;
64950;SDS011;51482;47.014;7.652;2022-12-13T03:48:20;15.60;;;9.67;;
64950;SDS011;51482;47.014;7.652;2022-12-13T03:50:47;19.80;;;11.27;;
64950;SDS011;51482;47.014;7.652;2022-12-13T03:53:13;20.03;;;11.43;;
64950;SDS011;51482;47.014;7.652;2022-12-13T03:55:39;20.53;;;11.30;;
64950;SDS011;51482;47.014;7.652;2022-12-13T03:58:04;18.27;;;11.70;;
64950;SDS011;51482;47.014;7.652;2022-12-13T04:00:30;16.60;;;10.27;;
64950;SDS011;51482;47.014;7.652;2022-12-13T04:02:56;21.13;;;11.73;;
64950;SDS011;51482;47.014;7.652;2022-12-13T04:05:21;25.27;;;19.17;;
64950;SDS011;51482;47.014;7.652;2022-12-13T04:07:47;24.13;;;13.37;;
64950;SDS011;51482;47.014;7.652;2022-12-13T04:10:12;20.90;;;13.23;;
64950;SDS011;51482;47.014;7.652;2022-12-13T04:12:38;53.50;;;23.07;;
64950;SDS011;51482;47.014;7.652;2022-12-13T04:15:22;33.47;;;16.33;;
64950;SDS011;51482;47.014;7.652;2022-12-13T04:17:48;19.13;;;12.07;;
64950;SDS011;51482;47.014;7.652;2022-12-13T04:20:13;20.27;;;11.20;;
64950;SDS011;51482;47.014;7.652;2022-12-13T04:22:39;20.10;;;12.00;;
64950;SDS011;51482;47.014;7.652;2022-12-13T04:25:05;19.10;;;11.33;;
64950;SDS011;51482;47.014;7.652;2022-12-13T04:27:31;21.23;;;11.37;;
64950;SDS011;51482;47.014;7.652;2022-12-13T04:29:56;17.70;;;11.40;;
64950;SDS011;51482;47.014;7.652;2022-12-13T04:32:22;18.60;;;11.43;;
64950;SDS011;51482;47.014;7.652;2022-12-13T04:34:47;20.70;;;11.43;;
64950;SDS011;51482;47.014;7.652;2022-12-13T04:37:13;19.43;;;10.30;;
64950;SDS011;51482;47.014;7.652;2022-12-13T04:39:39;17.63;;;10.60;;
64950;SDS011;51482;47.014;7.652;2022-12-13T04:42:04;20.17;;;11.17;;
64950;SDS011;51482;47.014;7.652;2022-12-13T04:44:30;18.70;;;10.67;;
64950;SDS011;51482;47.014;7.652;2022-12-13T04:46:56;16.07;;;9.90;;
64950;SDS011;51482;47.014;7.652;2022-12-13T04:49:22;16.63;;;10.10;;
64950;SDS011;51482;47.014;7.652;2022-12-13T04:51:47;20.53;;;10.57;;
64950;SDS011;51482;47.014;7.652;2022-12-13T04:54:13;15.67;;;10.83;;
64950;SDS011;51482;47.014;7.652;2022-12-13T04:56:39;19.03;;;10.63;;
64950;SDS011;51482;47.014;7.652;2022-12-13T04:59:04;19.23;;;10.93;;
64950;SDS011;51482;47.014;7.652;2022-12-13T05:01:30;20.83;;;11.37;;
64950;SDS011;51482;47.014;7.652;2022-12-13T05:03:55;17.63;;;10.60;;
64950;SDS011;51482;47.014;7.652;2022-12-13T05:06:21;18.07;;;11.47;;
64950;SDS011;51482;47.014;7.652;2022-12-13T05:08:46;19.83;;;11.97;;
64950;SDS011;51482;47.014;7.652;2022-12-13T05:11:12;21.70;;;12.13;;
64950;SDS011;51482;47.014;7.652;2022-12-13T05:13:38;22.27;;;12.37;;
64950;SDS011;51482;47.014;7.652;2022-12-13T05:16:04;21.80;;;11.93;;
64950;SDS011;51482;47.014;7.652;2022-12-13T05:18:32;19.83;;;11.77;;
64950;SDS011;51482;47.014;7.652;2022-12-13T05:21:03;21.17;;;11.93;;
64950;SDS011;51482;47.014;7.652;2022-12-13T05:23:30;20.80;;;12.43;;
64950;SDS011;51482;47.014;7.652;2022-12-13T05:25:55;21.00;;;12.70;;
64950;SDS011;51482;47.014;7.652;2022-12-13T05:28:21;23.90;;;12.53;;
64950;SDS011;51482;47.014;7.652;2022-12-13T05:30:51;20.57;;;12.27;;
64950;SDS011;51482;47.014;7.652;2022-12-13T05:33:17;21.73;;;12.03;;
64950;SDS011;51482;47.014;7.652;2022-12-13T05:35:42;19.40;;;12.27;;
64950;SDS011;51482;47.014;7.652;2022-12-13T05:38:08;19.90;;;12.60;;
64950;SDS011;51482;47.014;7.652;2022-12-13T05:40:34;21.40;;;12.63;;
64950;SDS011;51482;47.014;7.652;2022-12-13T05:42:59;21.93;;;12.03;;
64950;SDS011;51482;47.014;7.652;2022-12-13T05:45:25;19.30;;;11.67;;
64950;SDS011;51482;47.014;7.652;2022-12-13T05:47:51;114.87;;;38.93;;
64950;SDS011;51482;47.014;7.652;2022-12-13T05:50:17;31.30;;;16.37;;
64950;SDS011;51482;47.014;7.652;2022-12-13T05:52:43;26.00;;;13.57;;
64950;SDS011;51482;47.014;7.652;2022-12-13T05:55:09;27.63;;;12.50;;
64950;SDS011;51482;47.014;7.652;2022-12-13T05:57:35;24.83;;;13.60;;
64950;SDS011;51482;47.014;7.652;2022-12-13T06:00:06;25.37;;;12.67;;
64950;SDS011;51482;47.014;7.652;2022-12-13T06:02:40;19.03;;;12.17;;
64950;SDS011;51482;47.014;7.652;2022-12-13T06:05:07;24.27;;;13.07;;
64950;SDS011;51482;47.014;7.652;2022-12-13T06:07:34;22.37;;;12.77;;
64950;SDS011;51482;47.014;7.652;2022-12-13T06:10:00;26.67;;;13.33;;
64950;SDS011;51482;47.014;7.652;2022-12-13T06:12:26;23.07;;;12.77;;
64950;SDS011;51482;47.014;7.652;2022-12-13T06:14:52;25.13;;;13.60;;
64950;SDS011;51482;47.014;7.652;2022-12-13T06:17:17;21.83;;;12.43;;
64950;SDS011;51482;47.014;7.652;2022-12-13T06:19:43;25.80;;;13.43;;
64950;SDS011;51482;47.014;7.652;2022-12-13T06:22:10;21.63;;;12.70;;
64950;SDS011;51482;47.014;7.652;2022-12-13T06:24:36;22.67;;;13.17;;
64950;SDS011;51482;47.014;7.652;2022-12-13T06:27:01;23.23;;;13.07;;
64950;SDS011;51482;47.014;7.652;2022-12-13T06:29:29;25.60;;;14.73;;
64950;SDS011;51482;47.014;7.652;2022-12-13T06:31:57;24.47;;;14.40;;
64950;SDS011;51482;47.014;7.652;2022-12-13T06:34:24;24.17;;;14.50;;
64950;SDS011;51482;47.014;7.652;2022-12-13T06:36:50;23.20;;;14.57;;
64950;SDS011;51482;47.014;7.652;2022-12-13T06:39:16;27.33;;;14.33;;
64950;SDS011;51482;47.014;7.652;2022-12-13T06:41:42;28.13;;;15.83;;
64950;SDS011;51482;47.014;7.652;2022-12-13T06:44:07;28.03;;;14.27;;
64950;SDS011;51482;47.014;7.652;2022-12-13T06:46:33;25.73;;;15.67;;
64950;SDS011;51482;47.014;7.652;2022-12-13T06:48:59;27.70;;;16.00;;
64950;SDS011;51482;47.014;7.652;2022-12-13T06:51:25;30.53;;;15.83;;
64950;SDS011;51482;47.014;7.652;2022-12-13T06:53:51;24.63;;;14.83;;
64950;SDS011;51482;47.014;7.652;2022-12-13T06:56:16;25.20;;;14.90;;
64950;SDS011;51482;47.014;7.652;2022-12-13T06:58:42;26.33;;;14.37;;
64950;SDS011;51482;47.014;7.652;2022-12-13T07:01:09;25.30;;;14.53;;
64950;SDS011;51482;47.014;7.652;2022-12-13T07:03:40;27.83;;;15.40;;
64950;SDS011;51482;47.014;7.652;2022-12-13T07:06:07;27.23;;;16.47;;
64950;SDS011;51482;47.014;7.652;2022-12-13T07:08:38;30.47;;;17.83;;
64950;SDS011;51482;47.014;7.652;2022-12-13T07:11:04;28.83;;;16.40;;
64950;SDS011;51482;47.014;7.652;2022-12-13T07:13:30;31.70;;;17.03;;
64950;SDS011;51482;47.014;7.652;2022-12-13T07:15:58;27.70;;;16.27;;
64950;SDS011;51482;47.014;7.652;2022-12-13T07:18:24;30.07;;;17.43;;
64950;SDS011;51482;47.014;7.652;2022-12-13T07:20:50;30.70;;;18.07;;
64950;SDS011;51482;47.014;7.652;2022-12-13T07:23:15;35.57;;;16.87;;
64950;SDS011;51482;47.014;7.652;2022-12-13T07:25:41;36.43;;;19.73;;
64950;SDS011;51482;47.014;7.652;2022-12-13T07:28:07;28.70;;;18.20;;
64950;SDS011;51482;47.014;7.652;2022-12-13T07:30:34;39.60;;;18.03;;
64950;SDS011;51482;47.014;7.652;2022-12-13T07:33:01;34.77;;;20.87;;
64950;SDS011;51482;47.014;7.652;2022-12-13T07:35:28;28.23;;;17.53;;
64950;SDS011;51482;47.014;7.652;2022-12-13T07:37:55;28.47;;;17.67;;
64950;SDS011;51482;47.014;7.652;2022-12-13T07:40:21;28.77;;;16.63;;
64950;SDS011;51482;47.014;7.652;2022-12-13T07:42:50;28.37;;;17.80;;
64950;SDS011;51482;47.014;7.652;2022-12-13T07:45:20;30.67;;;17.80;;
64950;SDS011;51482;47.014;7.652;2022-12-13T07:47:47;24.90;;;16.63;;
64950;SDS011;51482;47.014;7.652;2022-12-13T07:50:13;30.37;;;16.87;;
64950;SDS011;51482;47.014;7.652;2022-12-13T07:52:39;26.00;;;16.97;;
64950;SDS011;51482;47.014;7.652;2022-12-13T07:55:05;36.03;;;19.27;;
64950;SDS011;51482;47.014;7.652;2022-12-13T07:57:32;33.20;;;18.80;;
64950;SDS011;51482;47.014;7.652;2022-12-13T07:59:57;38.70;;;19.47;;
64950;SDS011;51482;47.014;7.652;2022-12-13T08:02:23;33.27;;;19.33;;
64950;SDS011;51482;47.014;7.652;2022-12-13T08:04:49;28.73;;;16.77;;
64950;SDS011;51482;47.014;7.652;2022-12-13T08:07:15;24.77;;;16.77;;
64950;SDS011;51482;47.014;7.652;2022-12-13T08:09:40;27.87;;;16.73;;
64950;SDS011;51482;47.014;7.652;2022-12-13T08:12:06;27.90;;;16.40;;
64950;SDS011;51482;47.014;7.652;2022-12-13T08:14:31;27.17;;;17.43;;
64950;SDS011;51482;47.014;7.652;2022-12-13T08:16:57;30.27;;;16.97;;
64950;SDS011;51482;47.014;7.652;2022-12-13T08:19:22;29.77;;;17.70;;
64950;SDS011;51482;47.014;7.652;2022-12-13T08:21:48;28.43;;;17.87;;
64950;SDS011;51482;47.014;7.652;2022-12-13T08:24:16;28.60;;;17.60;;
64950;SDS011;51482;47.014;7.652;2022-12-13T08:26:42;28.40;;;18.00;;
64950;SDS011;51482;47.014;7.652;2022-12-13T08:29:08;29.27;;;17.77;;
64950;SDS011;51482;47.014;7.652;2022-12-13T08:31:33;23.57;;;15.13;;
64950;SDS011;51482;47.014;7.652;2022-12-13T08:33:59;26.13;;;16.53;;
64950;SDS011;51482;47.014;7.652;2022-12-13T08:36:25;25.77;;;16.70;;
64950;SDS011;51482;47.014;7.652;2022-12-13T08:38:50;30.93;;;18.03;;
64950;SDS011;51482;47.014;7.652;2022-12-13T08:41:20;28.40;;;17.53;;
64950;SDS011;51482;47.014;7.652;2022-12-13T08:43:46;29.10;;;17.00;;
64950;SDS011;51482;47.014;7.652;2022-12-13T08:46:12;34.57;;;16.77;;
64950;SDS011;51482;47.014;7.652;2022-12-13T08:48:38;37.63;;;20.63;;
64950;SDS011;51482;47.014;7.652;2022-12-13T08:51:05;27.50;;;17.60;;
64950;SDS011;51482;47.014;7.652;2022-12-13T08:53:32;25.67;;;17.17;;
64950;SDS011;51482;47.014;7.652;2022-12-13T08:55:58;28.43;;;17.20;;
64950;SDS011;51482;47.014;7.652;2022-12-13T08:58:28;27.43;;;16.37;;
64950;SDS011;51482;47.014;7.652;2022-12-13T09:00:54;25.43;;;16.83;;
64950;SDS011;51482;47.014;7.652;2022-12-13T09:03:20;26.57;;;17.23;;
64950;SDS011;51482;47.014;7.652;2022-12-13T09:05:47;32.67;;;17.33;;
64950;SDS011;51482;47.014;7.652;2022-12-13T09:08:13;23.27;;;16.77;;
64950;SDS011;51482;47.014;7.652;2022-12-13T09:10:40;29.30;;;17.40;;
64950;SDS011;51482;47.014;7.652;2022-12-13T09:13:05;28.87;;;17.60;;
64950;SDS011;51482;47.014;7.652;2022-12-13T09:15:31;25.50;;;17.13;;
64950;SDS011;51482;47.014;7.652;2022-12-13T09:17:57;25.93;;;16.53;;
64950;SDS011;51482;47.014;7.652;2022-12-13T09:20:23;26.20;;;15.80;;
64950;SDS011;51482;47.014;7.652;2022-12-13T09:22:49;25.10;;;15.90;;
64950;SDS011;51482;47.014;7.652;2022-12-13T09:25:15;29.23;;;17.03;;
64950;SDS011;51482;47.014;7.652;2022-12-13T09:27:41;25.00;;;16.87;;
64950;SDS011;51482;47.014;7.652;2022-12-13T09:30:08;29.63;;;17.53;;
64950;SDS011;51482;47.014;7.652;2022-12-13T09:32:38;32.00;;;18.53;;
64950;SDS011;51482;47.014;7.652;2022-12-13T09:35:05;27.63;;;16.83;;
64950;SDS011;51482;47.014;7.652;2022-12-13T09:37:31;28.47;;;17.30;;
64950;SDS011;51482;47.014;7.652;2022-12-13T09:39:56;25.17;;;16.80;;
64950;SDS011;51482;47.014;7.652;2022-12-13T09:42:23;24.77;;;16.50;;
64950;SDS011;51482;47.014;7.652;2022-12-13T09:44:55;25.43;;;16.80;;
64950;SDS011;51482;47.014;7.652;2022-12-13T09:47:33;30.27;;;17.93;;
64950;SDS011;51482;47.014;7.652;2022-12-13T09:50:07;30.33;;;19.17;;
64950;SDS011;51482;47.014;7.652;2022-12-13T09:52:38;28.37;;;16.90;;
64950;SDS011;51482;47.014;7.652;2022-12-13T09:55:25;29.63;;;17.27;;
64950;SDS011;51482;47.014;7.652;2022-12-13T09:57:54;27.43;;;16.93;;
64950;SDS011;51482;47.014;7.652;2022-12-13T10:00:22;24.60;;;16.87;;
64950;SDS011;51482;47.014;7.652;2022-12-13T10:02:53;32.13;;;17.00;;
64950;SDS011;51482;47.014;7.652;2022-12-13T10:05:30;26.57;;;16.87;;
64950;SDS011;51482;47.014;7.652;2022-12-13T10:08:00;27.73;;;17.50;;
64950;SDS011;51482;47.014;7.652;2022-12-13T10:10:36;26.10;;;16.70;;
64950;SDS011;51482;47.014;7.652;2022-12-13T10:13:22;27.70;;;17.30;;
64950;SDS011;51482;47.014;7.652;2022-12-13T10:16:00;25.43;;;16.43;;
64950;SDS011;51482;47.014;7.652;2022-12-13T10:18:47;30.90;;;17.33;;
64950;SDS011;51482;47.014;7.652;2022-12-13T10:21:15;25.33;;;17.00;;
64950;SDS011;51482;47.014;7.652;2022-12-13T10:23:44;28.93;;;18.03;;
64950;SDS011;51482;47.014;7.652;2022-12-13T10:26:10;27.33;;;16.87;;
64950;SDS011;51482;47.014;7.652;2022-12-13T10:28:37;29.07;;;18.33;;
64950;SDS011;51482;47.014;7.652;2022-12-13T10:31:04;30.20;;;17.77;;
64950;SDS011;51482;47.014;7.652;2022-12-13T10:33:36;27.77;;;17.63;;
64950;SDS011;51482;47.014;7.652;2022-12-13T10:38:53;26.93;;;17.13;;
64950;SDS011;51482;47.014;7.652;2022-12-13T10:41:25;29.47;;;18.73;;
64950;SDS011;51482;47.014;7.652;2022-12-13T10:46:48;28.70;;;17.63;;
64950;SDS011;51482;47.014;7.652;2022-12-13T10:49:20;27.17;;;17.00;;
64950;SDS011;51482;47.014;7.652;2022-12-13T10:51:48;31.00;;;17.93;;
64950;SDS011;51482;47.014;7.652;2022-12-13T10:54:18;27.80;;;17.67;;
64950;SDS011;51482;47.014;7.652;2022-12-13T10:56:48;35.93;;;19.90;;
64950;SDS011;51482;47.014;7.652;2022-12-13T11:01:49;30.50;;;18.13;;
64950;SDS011;51482;47.014;7.652;2022-12-13T11:04:33;25.97;;;17.20;;
64950;SDS011;51482;47.014;7.652;2022-12-13T11:07:01;31.50;;;19.00;;
64950;SDS011;51482;47.014;7.652;2022-12-13T11:09:52;31.80;;;17.57;;
64950;SDS011;51482;47.014;7.652;2022-12-13T11:12:22;29.17;;;18.30;;
64950;SDS011;51482;47.014;7.652;2022-12-13T11:14:54;31.70;;;17.60;;
64950;SDS011;51482;47.014;7.652;2022-12-13T11:17:27;28.33;;;16.83;;
64950;SDS011;51482;47.014;7.652;2022-12-13T11:20:02;26.40;;;16.33;;
64950;SDS011;51482;47.014;7.652;2022-12-13T11:22:35;27.00;;;16.63;;
64950;SDS011;51482;47.014;7.652;2022-12-13T11:25:03;29.70;;;18.57;;
64950;SDS011;51482;47.014;7.652;2022-12-13T11:44:26;29.67;;;17.83;;
64950;SDS011;51482;47.014;7.652;2022-12-13T11:46:56;26.93;;;16.80;;
64950;SDS011;51482;47.014;7.652;2022-12-13T11:49:43;24.73;;;17.07;;
64950;SDS011;51482;47.014;7.652;2022-12-13T11:52:26;29.30;;;15.90;;
64950;SDS011;51482;47.014;7.652;2022-12-13T11:54:59;24.97;;;15.83;;
64950;SDS011;51482;47.014;7.652;2022-12-13T12:00:49;23.43;;;15.50;;
64950;SDS011;51482;47.014;7.652;2022-12-13T12:03:19;27.23;;;17.10;;
64950;SDS011;51482;47.014;7.652;2022-12-13T12:06:06;26.20;;;16.57;;
64950;SDS011;51482;47.014;7.652;2022-12-13T12:08:44;25.87;;;15.10;;
64950;SDS011;51482;47.014;7.652;2022-12-13T12:11:16;25.97;;;16.10;;
64950;SDS011;51482;47.014;7.652;2022-12-13T12:13:51;25.43;;;15.53;;
64950;SDS011;51482;47.014;7.652;2022-12-13T12:18:52;25.23;;;15.87;;
64950;SDS011;51482;47.014;7.652;2022-12-13T12:21:23;23.87;;;16.10;;
64950;SDS011;51482;47.014;7.652;2022-12-13T12:32:37;23.10;;;15.57;;
64950;SDS011;51482;47.014;7.652;2022-12-13T12:35:14;24.70;;;15.87;;
64950;SDS011;51482;47.014;7.652;2022-12-13T12:43:54;26.90;;;16.50;;
64950;SDS011;51482;47.014;7.652;2022-12-13T12:51:30;22.97;;;15.00;;
64950;SDS011;51482;47.014;7.652;2022-12-13T12:56:48;22.33;;;15.63;;
64950;SDS011;51482;47.014;7.652;2022-12-13T12:59:26;26.27;;;16.07;;
64950;SDS011;51482;47.014;7.652;2022-12-13T13:02:05;23.63;;;16.20;;
64950;SDS011;51482;47.014;7.652;2022-12-13T13:04:58;26.60;;;15.73;;
64950;SDS011;51482;47.014;7.652;2022-12-13T13:07:33;25.73;;;16.63;;
64950;SDS011;51482;47.014;7.652;2022-12-13T13:10:02;23.83;;;15.83;;
64950;SDS011;51482;47.014;7.652;2022-12-13T13:12:38;23.60;;;16.03;;
64950;SDS011;51482;47.014;7.652;2022-12-13T13:26:34;30.17;;;18.97;;
64950;SDS011;51482;47.014;7.652;2022-12-13T13:31:56;27.23;;;18.97;;
64950;SDS011;51482;47.014;7.652;2022-12-13T13:34:23;30.93;;;17.23;;
64950;SDS011;51482;47.014;7.652;2022-12-13T13:36:51;43.77;;;20.73;;
64950;SDS011;51482;47.014;7.652;2022-12-13T13:47:33;20.63;;;14.60;;
64950;SDS011;51482;47.014;7.652;2022-12-13T14:10:12;24.37;;;17.20;;
64950;SDS011;51482;47.014;7.652;2022-12-13T14:13:11;25.80;;;16.57;;
64950;SDS011;51482;47.014;7.652;2022-12-13T14:27:26;23.37;;;16.30;;
64950;SDS011;51482;47.014;7.652;2022-12-13T14:29:56;22.50;;;15.87;;
64950;SDS011;51482;47.014;7.652;2022-12-13T14:32:26;25.90;;;15.83;;
64950;SDS011;51482;47.014;7.652;2022-12-13T14:34:54;24.47;;;16.63;;
64950;SDS011;51482;47.014;7.652;2022-12-13T14:37:25;24.07;;;16.87;;
64950;SDS011;51482;47.014;7.652;2022-12-13T14:39:58;23.40;;;14.50;;
64950;SDS011;51482;47.014;7.652;2022-12-13T14:42:29;24.53;;;16.33;;
64950;SDS011;51482;47.014;7.652;2022-12-13T14:45:12;24.87;;;15.07;;
64950;SDS011;51482;47.014;7.652;2022-12-13T14:47:55;23.23;;;16.07;;
64950;SDS011;51482;47.014;7.652;2022-12-13T14:50:24;25.33;;;16.97;;
64950;SDS011;51482;47.014;7.652;2022-12-13T14:52:50;28.00;;;16.97;;
64950;SDS011;51482;47.014;7.652;2022-12-13T14:55:21;27.67;;;16.90;;
64950;SDS011;51482;47.014;7.652;2022-12-13T14:57:52;27.90;;;17.70;;
64950;SDS011;51482;47.014;7.652;2022-12-13T15:00:20;26.40;;;17.87;;
64950;SDS011;51482;47.014;7.652;2022-12-13T15:03:01;23.73;;;15.83;;
64950;SDS011;51482;47.014;7.652;2022-12-13T15:05:31;29.67;;;17.17;;
64950;SDS011;51482;47.014;7.652;2022-12-13T15:08:08;24.63;;;15.83;;
64950;SDS011;51482;47.014;7.652;2022-12-13T15:10:39;25.93;;;16.50;;
64950;SDS011;51482;47.014;7.652;2022-12-13T15:13:23;23.23;;;15.57;;
64950;SDS011;51482;47.014;7.652;2022-12-13T15:15:53;24.60;;;16.27;;
64950;SDS011;51482;47.014;7.652;2022-12-13T15:18:24;22.80;;;15.47;;
64950;SDS011;51482;47.014;7.652;2022-12-13T15:20:52;23.03;;;16.03;;
64950;SDS011;51482;47.014;7.652;2022-12-13T15:25:45;28.63;;;17.27;;
64950;SDS011;51482;47.014;7.652;2022-12-13T15:28:16;27.90;;;16.97;;
64950;SDS011;51482;47.014;7.652;2022-12-13T15:30:41;24.57;;;16.67;;
64950;SDS011;51482;47.014;7.652;2022-12-13T15:33:22;26.37;;;16.13;;
64950;SDS011;51482;47.014;7.652;2022-12-13T15:35:59;23.93;;;16.03;;
64950;SDS011;51482;47.014;7.652;2022-12-13T15:38:58;23.47;;;15.97;;
64950;SDS011;51482;47.014;7.652;2022-12-13T15:41:29;23.23;;;15.33;;
64950;SDS011;51482;47.014;7.652;2022-12-13T15:44:06;24.13;;;15.20;;
64950;SDS011;51482;47.014;7.652;2022-12-13T15:46:50;21.97;;;15.27;;
64950;SDS011;51482;47.014;7.652;2022-12-13T15:49:35;22.23;;;15.23;;
64950;SDS011;51482;47.014;7.652;2022-12-13T15:54:37;26.57;;;15.97;;
64950;SDS011;51482;47.014;7.652;2022-12-13T15:57:20;23.93;;;16.07;;
64950;SDS011;51482;47.014;7.652;2022-12-13T15:59:47;22.90;;;15.23;;
64950;SDS011;51482;47.014;7.652;2022-12-13T16:02:31;22.13;;;14.70;;
64950;SDS011;51482;47.014;7.652;2022-12-13T16:05:31;23.50;;;14.80;;
64950;SDS011;51482;47.014;7.652;2022-12-13T16:07:52;23.43;;;15.83;;
64950;SDS011;51482;47.014;7.652;2022-12-13T16:10:18;22.60;;;15.60;;
64950;SDS011;51482;47.014;7.652;2022-12-13T16:12:55;23.67;;;16.10;;
64950;SDS011;51482;47.014;7.652;2022-12-13T16:15:25;23.93;;;15.13;;
64950;SDS011;51482;47.014;7.652;2022-12-13T16:20:55;20.53;;;14.43;;
64950;SDS011;51482;47.014;7.652;2022-12-13T16:23:21;24.97;;;14.67;;
64950;SDS011;51482;47.014;7.652;2022-12-13T16:25:47;20.83;;;14.57;;
64950;SDS011;51482;47.014;7.652;2022-12-13T16:28:13;24.87;;;15.97;;
64950;SDS011;51482;47.014;7.652;2022-12-13T16:33:18;24.30;;;15.70;;
64950;SDS011;51482;47.014;7.652;2022-12-13T16:35:45;25.03;;;15.33;;
64950;SDS011;51482;47.014;7.652;2022-12-13T16:38:11;22.33;;;16.27;;
64950;SDS011;51482;47.014;7.652;2022-12-13T16:40:37;28.70;;;17.03;;
64950;SDS011;51482;47.014;7.652;2022-12-13T16:43:04;28.00;;;17.23;;
64950;SDS011;51482;47.014;7.652;2022-12-13T16:45:37;27.43;;;16.17;;
64950;SDS011;51482;47.014;7.652;2022-12-13T16:48:07;27.40;;;18.00;;
64950;SDS011;51482;47.014;7.652;2022-12-13T16:50:33;27.27;;;15.97;;
64950;SDS011;51482;47.014;7.652;2022-12-13T16:53:01;28.00;;;16.27;;
64950;SDS011;51482;47.014;7.652;2022-12-13T16:55:27;26.27;;;15.97;;